createdAt,value
2022-08-20T00:01:16.114Z,24.73
2022-08-20T00:03:44.816Z,28.25
2022-08-20T00:06:23.993Z,23.98
2022-08-20T00:08:51.177Z,25.27
2022-08-20T00:11:25.376Z,23.65
2022-08-20T00:13:58.475Z,21.60
2022-08-20T00:16:32.837Z,24.77
2022-08-20T00:19:02.163Z,25.23
2022-08-20T00:21:29.435Z,21.92
2022-08-20T00:23:59.155Z,23.02
2022-08-20T00:26:26.786Z,25.33
2022-08-20T00:28:54.307Z,22.23
2022-08-20T00:31:24.097Z,23.67
2022-08-20T00:33:52.544Z,27.92
2022-08-20T00:36:20.138Z,23.63
2022-08-20T00:38:47.700Z,31.05
2022-08-20T00:41:24.268Z,26.70
2022-08-20T00:44:04.657Z,27.60
2022-08-20T00:46:32.520Z,27.95
2022-08-20T00:49:01.709Z,26.02
2022-08-20T00:51:48.213Z,23.80
2022-08-20T00:54:26.484Z,23.65
2022-08-20T00:57:03.384Z,26.88
2022-08-20T00:59:35.315Z,26.17
2022-08-20T01:02:05.559Z,29.05
2022-08-20T01:04:35.673Z,26.83
2022-08-20T01:07:06.194Z,29.30
2022-08-20T01:09:58.357Z,34.10
2022-08-20T01:12:25.780Z,30.45
2022-08-20T01:14:53.837Z,35.22
2022-08-20T01:17:25.218Z,34.60
2022-08-20T01:20:01.216Z,34.42
2022-08-20T01:23:25.242Z,32.45
2022-08-20T01:26:05.930Z,32.53
2022-08-20T01:28:55.808Z,35.40
2022-08-20T01:31:32.737Z,36.50
2022-08-20T01:34:02.485Z,33.58
2022-08-20T01:36:46.495Z,31.52
2022-08-20T01:39:19.622Z,29.52
2022-08-20T01:42:30.209Z,34.20
2022-08-20T01:44:57.271Z,35.35
2022-08-20T01:47:31.469Z,34.63
2022-08-20T01:50:20.404Z,33.78
2022-08-20T01:53:04.389Z,32.90
2022-08-20T01:55:32.697Z,37.70
2022-08-20T01:58:01.424Z,38.00
2022-08-20T02:00:28.564Z,37.85
2022-08-20T02:02:55.455Z,37.15
2022-08-20T02:05:23.088Z,41.72
2022-08-20T02:07:50.493Z,41.92
2022-08-20T02:10:19.202Z,39.28
2022-08-20T02:12:46.114Z,42.45
2022-08-20T02:15:13.490Z,39.10
2022-08-20T02:17:41.824Z,41.13
2022-08-20T02:20:23.564Z,44.95
2022-08-20T02:22:58.600Z,43.63
2022-08-20T02:25:30.362Z,38.28
2022-08-20T02:28:02.698Z,40.85
2022-08-20T02:30:36.949Z,50.83
2022-08-20T02:33:09.348Z,55.78
2022-08-20T02:35:38.274Z,52.15
2022-08-20T02:38:05.604Z,52.33
2022-08-20T02:40:33.062Z,51.42
2022-08-20T02:43:02.618Z,44.50
2022-08-20T02:45:37.394Z,42.65
2022-08-20T02:48:05.490Z,44.45
2022-08-20T02:50:32.367Z,51.70
2022-08-20T02:52:59.351Z,52.60
2022-08-20T02:55:27.425Z,53.95
2022-08-20T02:58:00.514Z,54.42
2022-08-20T03:00:38.017Z,56.95
2022-08-20T03:03:08.815Z,57.13
2022-08-20T03:05:38.123Z,56.67
2022-08-20T03:08:09.072Z,61.10
2022-08-20T03:10:38.797Z,59.20
2022-08-20T03:13:12.178Z,56.83
2022-08-20T03:15:44.097Z,59.20
2022-08-20T03:18:11.354Z,52.83
2022-08-20T03:20:39.346Z,48.90
2022-08-20T03:23:06.904Z,46.35
2022-08-20T03:25:34.437Z,48.80
2022-08-20T03:28:01.895Z,45.92
2022-08-20T03:30:31.185Z,49.40
2022-08-20T03:32:58.657Z,51.22
2022-08-20T03:35:29.071Z,42.65
2022-08-20T03:37:57.326Z,44.55
2022-08-20T03:40:32.742Z,46.90
2022-08-20T03:43:00.381Z,41.55
2022-08-20T03:45:29.899Z,48.38
2022-08-20T03:47:57.987Z,50.78
2022-08-20T03:50:28.463Z,47.15
2022-08-20T03:52:56.709Z,55.15
2022-08-20T03:55:25.933Z,50.58
2022-08-20T03:57:58.766Z,47.42
2022-08-20T04:00:50.039Z,49.13
2022-08-20T04:03:18.224Z,48.22
2022-08-20T04:05:46.489Z,45.17
2022-08-20T04:08:27.315Z,49.47
2022-08-20T04:10:57.652Z,41.83
2022-08-20T04:13:26.539Z,49.72
2022-08-20T04:15:55.483Z,39.67
2022-08-20T04:18:25.725Z,45.25
2022-08-20T04:20:54.171Z,44.08
2022-08-20T04:23:22.379Z,34.97
2022-08-20T04:25:49.855Z,40.50
2022-08-20T04:28:28.222Z,35.58
2022-08-20T04:30:58.896Z,33.38
2022-08-20T04:33:34.218Z,30.90
2022-08-20T04:36:05.583Z,30.48
2022-08-20T04:38:49.723Z,30.73
2022-08-20T04:41:23.596Z,25.88
2022-08-20T04:43:54.371Z,28.00
2022-08-20T04:46:25.679Z,23.33
2022-08-20T04:48:53.482Z,18.90
2022-08-20T04:51:22.893Z,18.85
2022-08-20T04:53:53.622Z,21.02
2022-08-20T04:56:25.853Z,19.02
2022-08-20T04:58:55.667Z,18.73
2022-08-20T05:01:24.209Z,20.30
2022-08-20T05:03:54.613Z,18.17
2022-08-20T05:06:25.791Z,17.23
2022-08-20T05:08:54.482Z,21.13
2022-08-20T05:11:32.843Z,17.25
2022-08-20T05:14:02.825Z,19.33
2022-08-20T05:16:29.843Z,19.45
2022-08-20T05:18:56.767Z,18.25
2022-08-20T05:21:23.588Z,20.52
2022-08-20T05:23:50.406Z,18.08
2022-08-20T05:26:20.236Z,20.10
2022-08-20T05:28:53.889Z,18.80
2022-08-20T05:31:32.092Z,20.08
2022-08-20T05:34:10.719Z,21.77
2022-08-20T05:36:49.387Z,23.00
2022-08-20T05:39:19.764Z,24.60
2022-08-20T05:41:50.769Z,23.23
2022-08-20T05:44:19.135Z,29.95
2022-08-20T05:46:47.985Z,28.45
2022-08-20T05:49:21.594Z,30.45
2022-08-20T05:51:51.299Z,30.38
2022-08-20T05:54:18.222Z,32.72
2022-08-20T05:56:45.195Z,33.95
2022-08-20T05:59:13.915Z,37.13
2022-08-20T06:01:42.719Z,38.95
2022-08-20T06:04:28.460Z,34.55
2022-08-20T06:07:07.156Z,36.97
2022-08-20T06:09:36.159Z,30.55
2022-08-20T06:12:06.492Z,39.00
2022-08-20T06:14:34.223Z,37.08
2022-08-20T06:17:13.452Z,37.40
2022-08-20T06:19:44.672Z,34.35
2022-08-20T06:22:19.433Z,35.72
2022-08-20T06:24:55.032Z,32.72
2022-08-20T06:27:22.868Z,34.20
2022-08-20T06:29:51.253Z,31.98
2022-08-20T06:32:19.797Z,26.63
2022-08-20T06:34:55.750Z,29.33
2022-08-20T06:37:31.342Z,28.50
2022-08-20T06:40:06.918Z,27.13
2022-08-20T06:42:34.033Z,36.38
2022-08-20T06:45:05.546Z,34.83
2022-08-20T06:47:33.859Z,26.70
2022-08-20T06:50:00.787Z,30.95
2022-08-20T06:52:52.299Z,32.17
2022-08-20T06:55:17.312Z,32.72
2022-08-20T06:57:44.325Z,34.03
2022-08-20T07:00:16.929Z,36.40
2022-08-20T07:02:43.779Z,41.22
2022-08-20T07:05:12.345Z,40.42
2022-08-20T07:07:39.400Z,44.70
2022-08-20T07:10:12.769Z,41.15
2022-08-20T07:12:39.616Z,47.45
2022-08-20T07:15:12.023Z,48.30
2022-08-20T07:17:39.966Z,44.08
2022-08-20T07:20:15.090Z,51.80
2022-08-20T07:22:43.266Z,49.50
2022-08-20T07:25:15.358Z,55.88
2022-08-20T07:27:43.812Z,51.50
2022-08-20T07:30:34.162Z,49.83
2022-08-20T07:33:21.052Z,46.92
2022-08-20T07:35:49.027Z,52.03
2022-08-20T07:38:24.723Z,56.35
2022-08-20T07:41:06.118Z,60.22
2022-08-20T07:43:34.312Z,48.70
2022-08-20T07:46:07.608Z,61.08
2022-08-20T07:48:40.014Z,57.80
2022-08-20T07:51:10.735Z,59.15
2022-08-20T07:53:39.802Z,51.70
2022-08-20T07:56:14.701Z,49.85
2022-08-20T07:58:53.050Z,51.03
2022-08-20T08:01:26.216Z,53.78
2022-08-20T08:03:53.679Z,55.42
2022-08-20T08:06:29.451Z,49.15
2022-08-20T08:09:09.968Z,46.05
2022-08-20T08:11:46.483Z,56.92
2022-08-20T08:14:19.482Z,49.08
2022-08-20T08:16:46.876Z,51.80
2022-08-20T08:19:17.691Z,55.55
2022-08-20T08:21:45.010Z,63.67
2022-08-20T08:24:16.622Z,50.17
2022-08-20T08:26:49.843Z,54.42
2022-08-20T08:29:17.036Z,52.03
2022-08-20T08:31:44.168Z,48.10
2022-08-20T08:34:11.536Z,51.13
2022-08-20T08:36:39.890Z,47.30
2022-08-20T08:39:07.118Z,52.40
2022-08-20T08:41:48.327Z,54.95
2022-08-20T08:44:24.654Z,48.90
2022-08-20T08:47:18.637Z,56.80
2022-08-20T08:49:47.848Z,46.00
2022-08-20T08:52:27.600Z,51.00
2022-08-20T08:55:00.042Z,48.20
2022-08-20T08:57:27.293Z,55.90
2022-08-20T09:00:05.426Z,48.28
2022-08-20T09:02:36.177Z,48.03
2022-08-20T09:05:14.786Z,51.53
2022-08-20T09:07:45.713Z,48.72
2022-08-20T09:10:12.992Z,44.60
2022-08-20T09:12:42.425Z,49.95
2022-08-20T09:15:12.891Z,49.42
2022-08-20T09:17:39.883Z,50.75
2022-08-20T09:20:09.418Z,51.58
2022-08-20T09:22:36.408Z,47.28
2022-08-20T09:25:05.106Z,51.42
2022-08-20T09:27:32.060Z,52.20
2022-08-20T09:29:58.950Z,49.22
2022-08-20T09:32:26.311Z,51.08
2022-08-20T09:34:59.887Z,51.22
2022-08-20T09:37:36.700Z,51.57
2022-08-20T09:40:07.212Z,50.20
2022-08-20T09:42:41.286Z,50.25
2022-08-20T09:47:43.851Z,52.53
2022-08-20T09:50:22.229Z,47.13
2022-08-20T09:52:55.336Z,43.53
2022-08-20T09:55:37.873Z,45.67
2022-08-20T09:58:34.338Z,44.60
2022-08-20T10:01:15.017Z,47.30
2022-08-20T10:03:43.809Z,46.13
2022-08-20T10:06:11.318Z,46.03
2022-08-20T10:08:38.897Z,46.10
2022-08-20T10:11:05.979Z,47.65
2022-08-20T10:13:32.820Z,44.05
2022-08-20T10:15:59.768Z,46.65
2022-08-20T10:18:26.661Z,40.95
2022-08-20T10:20:53.536Z,42.83
2022-08-20T10:23:20.494Z,42.47
2022-08-20T10:25:47.423Z,43.40
2022-08-20T10:28:14.563Z,37.58
2022-08-20T10:30:41.575Z,47.70
2022-08-20T10:33:08.361Z,43.55
2022-08-20T10:35:35.275Z,53.13
2022-08-20T10:38:02.393Z,51.20
2022-08-20T10:40:29.247Z,42.67
2022-08-20T10:42:56.064Z,45.55
2022-08-20T10:45:25.174Z,45.97
2022-08-20T10:47:52.096Z,43.25
2022-08-20T10:50:20.128Z,40.17
2022-08-20T10:52:47.539Z,43.45
2022-08-20T10:55:14.645Z,46.83
2022-08-20T10:57:43.709Z,44.42
2022-08-20T11:00:15.189Z,44.75
2022-08-20T11:02:42.130Z,40.15
2022-08-20T11:05:09.848Z,42.47
2022-08-20T11:07:50.031Z,38.58
2022-08-20T11:10:25.540Z,41.35
2022-08-20T11:12:52.403Z,38.88
2022-08-20T11:15:19.448Z,34.33
2022-08-20T11:17:46.947Z,37.95
2022-08-20T11:20:18.039Z,43.17
2022-08-20T11:22:44.918Z,43.55
2022-08-20T11:25:12.372Z,45.78
2022-08-20T11:27:45.145Z,44.13
2022-08-20T11:30:21.968Z,42.95
2022-08-20T11:32:49.308Z,49.67
2022-08-20T11:35:41.701Z,42.78
2022-08-20T11:38:04.654Z,46.65
2022-08-20T11:40:31.869Z,44.30
2022-08-20T11:43:14.198Z,46.72
2022-08-20T11:45:43.254Z,43.13
2022-08-20T11:48:10.097Z,43.03
2022-08-20T11:50:36.967Z,48.97
2022-08-20T11:53:03.797Z,35.65
2022-08-20T11:55:31.131Z,39.65
2022-08-20T11:57:59.860Z,53.13
2022-08-20T12:00:32.976Z,43.53
2022-08-20T12:03:08.987Z,43.83
2022-08-20T12:05:38.230Z,44.72
2022-08-20T12:08:05.837Z,45.53
2022-08-20T12:10:33.310Z,51.40
2022-08-20T12:13:00.364Z,49.08
2022-08-20T12:15:29.959Z,50.35
2022-08-20T12:17:56.978Z,47.88
2022-08-20T12:20:24.571Z,48.13
2022-08-20T12:22:53.878Z,48.97
2022-08-20T12:25:21.253Z,45.65
2022-08-20T12:27:48.118Z,49.65
2022-08-20T12:30:22.096Z,54.38
2022-08-20T12:32:49.574Z,54.35
2022-08-20T12:35:19.337Z,58.03
2022-08-20T12:37:47.062Z,54.45
2022-08-20T12:40:31.781Z,55.03
2022-08-20T12:43:01.291Z,60.42
2022-08-20T12:45:28.625Z,58.08
2022-08-20T12:48:08.748Z,59.25
2022-08-20T12:50:38.644Z,54.40
2022-08-20T12:53:06.332Z,64.32
2022-08-20T12:55:34.675Z,56.92
2022-08-20T12:58:04.352Z,55.33
2022-08-20T13:00:50.592Z,58.13
2022-08-20T13:03:20.036Z,57.03
2022-08-20T13:05:47.146Z,57.40
2022-08-20T13:08:14.169Z,51.83
2022-08-20T13:10:45.435Z,51.88
2022-08-20T13:13:14.819Z,50.92
2022-08-20T13:15:44.382Z,45.60
2022-08-20T13:18:11.389Z,47.25
2022-08-20T13:20:38.518Z,46.70
2022-08-20T13:23:06.021Z,54.80
2022-08-20T13:25:34.263Z,54.20
2022-08-20T13:28:04.440Z,52.70
2022-08-20T13:30:35.040Z,55.53
2022-08-20T13:33:02.442Z,49.58
2022-08-20T13:35:29.367Z,52.25
2022-08-20T13:37:56.258Z,48.92
2022-08-20T13:40:23.491Z,44.60
2022-08-20T13:42:50.447Z,43.22
2022-08-20T13:45:17.716Z,33.15
2022-08-20T13:47:44.805Z,32.88
2022-08-20T13:50:19.646Z,32.25
2022-08-20T13:52:47.777Z,28.27
2022-08-20T13:55:19.842Z,24.73
2022-08-20T13:57:48.371Z,26.15
2022-08-20T14:00:30.210Z,29.33
2022-08-20T14:03:01.097Z,33.40
2022-08-20T14:05:30.504Z,41.15
2022-08-20T14:08:07.802Z,37.20
2022-08-20T14:10:35.748Z,30.17
2022-08-20T14:13:04.017Z,37.20
2022-08-20T14:15:30.871Z,27.08
2022-08-20T14:17:58.454Z,20.50
2022-08-20T14:20:33.399Z,17.38
2022-08-20T14:23:02.124Z,13.05
2022-08-20T14:25:31.606Z,13.45
2022-08-20T14:27:59.607Z,13.07
2022-08-20T14:30:30.432Z,16.60
2022-08-20T14:32:57.720Z,16.52
2022-08-20T14:35:25.127Z,16.48
2022-08-20T14:37:53.902Z,14.13
2022-08-20T14:40:24.754Z,18.95
2022-08-20T14:42:51.969Z,14.20
2022-08-20T14:45:20.313Z,18.02
2022-08-20T14:47:56.997Z,18.50
2022-08-20T14:50:36.036Z,19.55
2022-08-20T14:53:03.819Z,20.83
2022-08-20T14:55:37.186Z,22.90
2022-08-20T14:58:12.409Z,21.70
2022-08-20T15:00:40.263Z,20.30
2022-08-20T15:03:07.520Z,19.92
2022-08-20T15:05:39.612Z,17.55
2022-08-20T15:08:08.320Z,18.70
2022-08-20T15:10:38.718Z,20.25
2022-08-20T15:13:05.659Z,18.95
2022-08-20T15:15:32.619Z,18.95
2022-08-20T15:18:00.642Z,22.38
2022-08-20T15:20:31.509Z,23.05
2022-08-20T15:22:59.205Z,22.48
2022-08-20T15:25:36.701Z,23.00
2022-08-20T15:28:07.471Z,26.85
2022-08-20T15:30:35.644Z,27.42
2022-08-20T15:33:03.075Z,25.00
2022-08-20T15:35:30.237Z,25.50
2022-08-20T15:37:59.188Z,16.27
2022-08-20T15:40:29.864Z,21.95
2022-08-20T15:42:59.195Z,20.45
2022-08-20T15:45:27.027Z,22.30
2022-08-20T15:48:01.368Z,19.20
2022-08-20T15:50:51.203Z,18.58
2022-08-20T15:53:31.921Z,18.08
2022-08-20T15:56:23.763Z,19.17
2022-08-20T15:59:30.773Z,28.08
2022-08-20T16:02:44.915Z,30.13
2022-08-20T16:05:21.168Z,26.33
2022-08-20T16:08:09.027Z,25.35
2022-08-20T16:10:55.079Z,29.05
2022-08-20T16:13:44.625Z,30.00
2022-08-20T16:16:20.105Z,27.80
2022-08-20T16:18:52.070Z,34.55
2022-08-20T16:21:29.855Z,31.50
2022-08-20T16:23:57.819Z,25.65
2022-08-20T16:26:59.471Z,26.95
2022-08-20T16:29:56.772Z,29.65
2022-08-20T16:32:46.438Z,29.70
2022-08-20T16:35:29.605Z,28.55
2022-08-20T16:38:21.177Z,25.05
2022-08-20T16:41:00.795Z,27.08
2022-08-20T16:43:54.592Z,25.67
2022-08-20T16:46:28.452Z,29.90
2022-08-20T16:49:07.613Z,25.38
2022-08-20T16:51:50.958Z,27.95
2022-08-20T16:54:29.467Z,33.33
2022-08-20T16:57:03.223Z,26.33
2022-08-20T16:59:31.968Z,28.02
2022-08-20T17:02:10.143Z,31.45
2022-08-20T17:04:58.654Z,26.60
2022-08-20T17:07:42.578Z,24.23
2022-08-20T17:10:31.115Z,31.65
2022-08-20T17:13:16.007Z,27.05
2022-08-20T17:15:52.346Z,28.55
2022-08-20T17:18:53.169Z,28.33
2022-08-20T17:21:35.440Z,23.55
2022-08-20T17:24:30.201Z,28.02
2022-08-20T17:27:16.277Z,29.38
2022-08-20T17:29:56.788Z,28.30
2022-08-20T17:32:29.309Z,28.60
2022-08-20T17:34:59.784Z,29.45
2022-08-20T17:37:36.052Z,28.05
2022-08-20T17:40:18.357Z,24.92
2022-08-20T17:43:01.488Z,24.50
2022-08-20T17:45:40.233Z,24.60
2022-08-20T17:48:20.358Z,27.92
2022-08-20T17:50:47.861Z,24.98
2022-08-20T17:53:31.126Z,29.00
2022-08-20T17:56:09.008Z,24.55
2022-08-20T17:58:54.503Z,26.60
2022-08-20T18:01:23.566Z,25.50
2022-08-20T18:03:52.841Z,28.63
2022-08-20T18:06:39.388Z,29.92
2022-08-20T18:09:50.029Z,22.70
2022-08-20T18:12:40.787Z,24.33
2022-08-20T18:15:23.640Z,24.73
2022-08-20T18:18:36.066Z,25.83
2022-08-20T18:21:38.069Z,32.03
2022-08-20T18:24:24.653Z,33.85
2022-08-20T18:27:11.788Z,33.40
2022-08-20T18:29:44.988Z,34.95
2022-08-20T18:32:33.591Z,30.92
2022-08-20T18:35:32.989Z,34.58
2022-08-20T18:38:27.807Z,30.63
2022-08-20T18:41:15.389Z,34.83
2022-08-20T18:43:43.591Z,27.77
2022-08-20T18:46:23.281Z,31.67
2022-08-20T18:49:00.120Z,31.92
2022-08-20T18:51:48.757Z,24.75
2022-08-20T18:54:31.963Z,28.88
2022-08-20T18:57:20.755Z,32.53
2022-08-20T19:00:14.792Z,29.75
2022-08-20T19:03:07.808Z,33.20
2022-08-20T19:05:42.768Z,32.13
2022-08-20T19:08:13.851Z,27.67
2022-08-20T19:10:56.456Z,28.60
2022-08-20T19:14:20.380Z,26.63
2022-08-20T19:17:02.136Z,23.20
2022-08-20T19:19:32.847Z,22.05
2022-08-20T19:22:02.395Z,23.48
2022-08-20T19:24:34.267Z,26.60
2022-08-20T19:27:08.433Z,24.73
2022-08-20T19:29:46.839Z,25.23
2022-08-20T19:32:27.035Z,29.00
2022-08-20T19:34:59.202Z,28.40
2022-08-20T19:37:39.842Z,23.85
2022-08-20T19:40:32.044Z,27.75
2022-08-20T19:43:05.798Z,27.50
2022-08-20T19:45:50.121Z,29.25
2022-08-20T19:48:27.072Z,28.73
2022-08-20T19:51:14.790Z,24.95
2022-08-20T19:53:48.392Z,25.77
2022-08-20T19:56:23.707Z,28.42
2022-08-20T19:59:06.521Z,26.02
2022-08-20T20:01:35.777Z,30.70
2022-08-20T20:04:16.240Z,24.88
2022-08-20T20:06:48.110Z,23.95
2022-08-20T20:09:26.238Z,21.25
2022-08-20T20:11:59.971Z,27.20
2022-08-20T20:14:34.209Z,25.10
2022-08-20T20:17:05.276Z,23.65
2022-08-20T20:19:45.299Z,32.33
2022-08-20T20:22:24.505Z,29.05
2022-08-20T20:25:27.681Z,21.92
2022-08-20T20:27:58.754Z,26.55
2022-08-20T20:30:33.002Z,38.45
2022-08-20T20:33:10.919Z,26.45
2022-08-20T20:35:38.006Z,24.95
2022-08-20T20:38:25.178Z,29.65
2022-08-20T20:40:57.059Z,25.13
2022-08-20T20:43:38.388Z,28.90
2022-08-20T20:46:22.441Z,23.52
2022-08-20T20:49:15.444Z,29.42
2022-08-20T20:52:13.224Z,28.17
2022-08-20T20:54:45.599Z,31.63
2022-08-20T20:57:18.413Z,29.25
2022-08-20T20:59:48.981Z,31.35
2022-08-20T21:02:17.690Z,28.30
2022-08-20T21:04:44.767Z,31.60
2022-08-20T21:07:16.433Z,27.42
2022-08-20T21:09:44.978Z,27.58
2022-08-20T21:12:13.219Z,41.03
2022-08-20T21:14:40.331Z,35.42
2022-08-20T21:17:11.798Z,39.17
2022-08-20T21:19:41.030Z,30.42
2022-08-20T21:22:11.828Z,37.72
2022-08-20T21:24:38.729Z,32.17
2022-08-20T21:27:05.705Z,39.97
2022-08-20T21:29:33.127Z,40.80
2022-08-20T21:32:00.575Z,37.13
2022-08-20T21:34:27.557Z,45.25
2022-08-20T21:36:54.597Z,46.83
2022-08-20T21:39:23.210Z,45.05
2022-08-20T21:41:51.654Z,43.50
2022-08-20T21:44:25.267Z,39.40
2022-08-20T21:46:56.335Z,52.33
2022-08-20T21:49:25.337Z,44.20
2022-08-20T21:51:53.056Z,48.20
2022-08-20T21:54:21.217Z,37.90
2022-08-20T21:56:56.035Z,47.50
2022-08-20T21:59:24.670Z,47.65
2022-08-20T22:01:52.821Z,48.55
2022-08-20T22:04:20.529Z,55.80
2022-08-20T22:06:48.201Z,54.33
2022-08-20T22:09:15.946Z,51.55
2022-08-20T22:11:43.064Z,62.47
2022-08-20T22:14:15.071Z,63.35
2022-08-20T22:16:45.418Z,56.40
2022-08-20T22:19:16.201Z,70.63
2022-08-20T22:21:43.385Z,68.82
2022-08-20T22:24:13.245Z,58.40
2022-08-20T22:26:42.293Z,63.00
2022-08-20T22:29:11.712Z,68.68
2022-08-20T22:31:42.314Z,58.05
2022-08-20T22:34:12.460Z,55.92
2022-08-20T22:36:40.356Z,62.17
2022-08-20T22:39:08.682Z,75.53
2022-08-20T22:41:36.128Z,70.10
2022-08-20T22:44:04.006Z,78.72
2022-08-20T22:46:37.835Z,65.80
2022-08-20T22:49:08.082Z,58.93
2022-08-20T22:51:38.692Z,63.92
2022-08-20T22:54:10.670Z,58.65
2022-08-20T22:56:38.720Z,63.38
2022-08-20T22:59:07.990Z,60.75
2022-08-20T23:01:35.010Z,50.92
2022-08-20T23:04:20.119Z,58.95
2022-08-20T23:09:13.917Z,53.72
2022-08-20T23:11:41.688Z,60.10
2022-08-20T23:14:08.575Z,49.38
2022-08-20T23:16:39.086Z,45.75
2022-08-20T23:19:06.875Z,51.78
2022-08-20T23:21:33.795Z,48.97
2022-08-20T23:24:00.695Z,51.88
2022-08-20T23:26:27.750Z,45.00
2022-08-20T23:28:54.572Z,46.67
2022-08-20T23:31:22.252Z,46.20
2022-08-20T23:33:49.154Z,46.20
2022-08-20T23:36:19.546Z,44.85
2022-08-20T23:38:46.907Z,43.28
2022-08-20T23:41:13.731Z,35.40
2022-08-20T23:43:40.752Z,46.88
2022-08-20T23:46:08.860Z,45.03
2022-08-20T23:48:36.033Z,44.67
2022-08-20T23:51:03.191Z,46.65
2022-08-20T23:53:30.244Z,45.25
2022-08-20T23:55:57.243Z,43.78
2022-08-20T23:58:24.288Z,49.53
